createdAt,value
2022-11-24T00:00:06.619Z,2.10
2022-11-24T00:05:09.709Z,7.85
2022-11-24T00:10:12.255Z,7.32
2022-11-24T00:15:16.688Z,5.45
2022-11-24T00:20:19.202Z,6.95
2022-11-24T00:25:21.768Z,2.88
2022-11-24T00:30:25.603Z,4.57
2022-11-24T00:35:28.175Z,3.20
2022-11-24T00:40:34.827Z,3.63
2022-11-24T00:45:39.168Z,7.03
2022-11-24T00:55:49.526Z,3.10
2022-11-24T01:00:56.751Z,5.93
2022-11-24T01:11:09.615Z,5.45
2022-11-24T01:16:18.132Z,6.30
2022-11-24T01:21:21.446Z,6.68
2022-11-24T01:26:24.233Z,4.30
2022-11-24T01:31:28.605Z,2.30
2022-11-24T01:36:31.147Z,8.82
2022-11-24T01:41:34.990Z,5.85
2022-11-24T01:46:40.362Z,2.13
2022-11-24T01:51:44.768Z,6.72
2022-11-24T01:56:48.767Z,3.55
2022-11-24T02:01:53.391Z,3.72
2022-11-24T02:06:58.824Z,3.03
2022-11-24T02:12:02.046Z,2.60
2022-11-24T02:17:05.988Z,7.00
2022-11-24T02:22:10.132Z,1.40
2022-11-24T02:27:14.189Z,1.15
2022-11-24T02:32:17.292Z,3.72
2022-11-24T02:37:20.911Z,2.42
2022-11-24T02:42:25.675Z,3.70
2022-11-24T02:47:28.823Z,1.95
2022-11-24T02:52:31.393Z,1.02
2022-11-24T02:57:35.311Z,3.40
2022-11-24T03:02:37.991Z,1.58
2022-11-24T03:07:40.672Z,0.20
2022-11-24T03:12:44.701Z,3.13
2022-11-24T03:17:47.529Z,1.15
2022-11-24T03:22:50.298Z,1.73
2022-11-24T03:27:54.612Z,0.65
2022-11-24T03:32:57.328Z,0.85
2022-11-24T03:37:59.940Z,0.70
2022-11-24T03:43:04.059Z,5.50
2022-11-24T03:53:09.078Z,1.98
2022-11-24T03:58:13.072Z,2.58
2022-11-24T04:03:15.769Z,0.20
2022-11-24T04:08:18.667Z,3.05
2022-11-24T04:13:23.516Z,1.13
2022-11-24T04:18:26.192Z,1.70
2022-11-24T04:23:28.858Z,1.52
2022-11-24T04:28:33.223Z,1.60
2022-11-24T04:33:35.859Z,0.43
2022-11-24T04:39:23.940Z,0.30
2022-11-24T04:44:02.907Z,2.75
2022-11-24T04:49:05.666Z,1.70
2022-11-24T04:54:08.468Z,4.82
2022-11-24T04:59:15.005Z,2.85
2022-11-24T05:04:18.975Z,2.83
2022-11-24T05:09:21.526Z,4.57
2022-11-24T05:14:25.737Z,3.78
2022-11-24T05:24:35.624Z,1.63
2022-11-24T05:29:39.775Z,1.52
2022-11-24T05:34:42.388Z,3.65
2022-11-24T05:39:45.167Z,1.95
2022-11-24T05:44:49.532Z,4.80
2022-11-24T05:49:58.108Z,3.50
2022-11-24T05:55:00.779Z,4.03
2022-11-24T06:00:05.280Z,2.60
2022-11-24T06:05:08.296Z,2.88
2022-11-24T06:10:11.387Z,1.17
2022-11-24T06:15:19.621Z,4.13
2022-11-24T06:20:22.282Z,2.05
2022-11-24T06:25:24.955Z,3.17
2022-11-24T06:30:29.413Z,2.63
2022-11-24T06:35:32.015Z,4.45
2022-11-24T06:40:34.580Z,4.13
2022-11-24T06:45:52.179Z,3.83
2022-11-24T06:50:55.295Z,3.75
2022-11-24T06:55:58.887Z,3.55
2022-11-24T07:01:02.785Z,7.10
2022-11-24T07:06:05.365Z,4.63
2022-11-24T07:11:09.189Z,5.82
2022-11-24T07:16:14.796Z,3.40
2022-11-24T07:21:17.443Z,3.38
2022-11-24T07:26:21.604Z,5.43
2022-11-24T07:31:26.173Z,2.72
2022-11-24T07:36:28.843Z,2.30
2022-11-24T07:41:31.440Z,1.27
2022-11-24T07:46:36.419Z,7.15
2022-11-24T07:51:42.142Z,5.50
2022-11-24T07:56:44.648Z,7.60
2022-11-24T08:01:48.695Z,3.88
2022-11-24T08:07:00.694Z,3.90
2022-11-24T08:12:03.325Z,1.87
2022-11-24T08:17:07.384Z,1.87
2022-11-24T08:22:10.150Z,4.25
2022-11-24T08:27:12.821Z,4.85
2022-11-24T08:32:21.920Z,6.13
2022-11-24T08:37:26.407Z,5.10
2022-11-24T08:42:29.582Z,5.53
2022-11-24T08:47:33.605Z,1.38
2022-11-24T08:52:36.284Z,7.03
2022-11-24T08:57:38.839Z,2.75
2022-11-24T09:02:43.241Z,2.45
2022-11-24T09:07:45.837Z,7.20
2022-11-24T09:12:48.763Z,3.40
2022-11-24T09:17:52.674Z,3.88
2022-11-24T09:23:05.521Z,4.55
2022-11-24T09:28:08.170Z,4.20
2022-11-24T09:33:12.023Z,2.20
2022-11-24T09:43:20.943Z,5.63
2022-11-24T09:48:28.080Z,3.33
2022-11-24T09:53:32.229Z,4.95
2022-11-24T09:58:39.788Z,2.05
2022-11-24T10:03:44.418Z,4.07
2022-11-24T10:08:55.328Z,6.72
2022-11-24T10:14:23.635Z,3.60
2022-11-24T10:19:40.124Z,2.45
2022-11-24T10:24:54.354Z,3.58
2022-11-24T10:29:57.534Z,6.57
2022-11-24T10:35:03.835Z,1.87
2022-11-24T10:40:17.164Z,3.35
2022-11-24T10:45:33.271Z,7.10
2022-11-24T10:50:39.869Z,1.05
2022-11-24T10:55:58.135Z,1.98
2022-11-24T11:01:01.414Z,2.13
2022-11-24T11:06:11.586Z,0.77
2022-11-24T11:11:15.834Z,2.65
2022-11-24T11:16:24.457Z,1.70
2022-11-24T11:21:30.254Z,1.45
2022-11-24T11:26:34.323Z,1.13
2022-11-24T11:31:37.735Z,3.65
2022-11-24T11:36:43.286Z,2.63
2022-11-24T11:41:47.787Z,2.33
2022-11-24T11:46:51.285Z,2.03
2022-11-24T11:52:02.615Z,3.47
2022-11-24T11:57:08.945Z,2.22
2022-11-24T12:02:26.406Z,4.13
2022-11-24T12:07:43.323Z,4.55
2022-11-24T12:12:51.325Z,3.90
2022-11-24T12:17:56.481Z,3.80
2022-11-24T12:23:05.687Z,0.98
2022-11-24T12:28:15.446Z,2.70
2022-11-24T12:33:26.127Z,3.88
2022-11-24T12:38:34.986Z,3.75
2022-11-24T12:43:38.527Z,2.08
2022-11-24T12:48:44.350Z,1.52
2022-11-24T12:53:49.598Z,1.38
2022-11-24T12:58:55.529Z,1.50
2022-11-24T13:04:04.190Z,3.17
2022-11-24T13:09:11.743Z,0.77
2022-11-24T13:14:19.209Z,3.42
2022-11-24T13:19:23.729Z,2.10
2022-11-24T13:24:30.738Z,1.88
2022-11-24T13:29:35.236Z,1.10
2022-11-24T13:35:03.418Z,2.70
2022-11-24T13:40:30.298Z,1.10
2022-11-24T13:45:52.633Z,1.38
2022-11-24T13:51:15.312Z,3.33
2022-11-24T13:56:24.514Z,1.35
2022-11-24T14:01:28.388Z,8.85
2022-11-24T14:06:32.826Z,5.60
2022-11-24T14:11:37.386Z,3.20
2022-11-24T14:16:39.979Z,5.95
2022-11-24T14:21:42.566Z,2.13
2022-11-24T14:26:47.086Z,2.28
2022-11-24T14:31:53.686Z,3.83
2022-11-24T14:36:56.930Z,1.33
2022-11-24T14:42:18.862Z,1.17
2022-11-24T14:47:30.866Z,3.45
2022-11-24T14:52:35.265Z,0.40
2022-11-24T14:57:40.401Z,1.80
2022-11-24T15:02:44.764Z,0.73
2022-11-24T15:07:48.202Z,1.23
2022-11-24T15:12:54.513Z,1.75
2022-11-24T15:17:57.843Z,1.27
2022-11-24T15:23:27.348Z,1.70
2022-11-24T15:28:31.810Z,2.25
2022-11-24T15:33:34.434Z,1.13
2022-11-24T15:38:37.020Z,1.08
2022-11-24T15:43:41.958Z,3.03
2022-11-24T15:48:45.214Z,1.33
2022-11-24T15:53:49.020Z,2.90
2022-11-24T15:58:53.096Z,4.30
2022-11-24T16:03:55.609Z,3.85
2022-11-24T16:08:58.976Z,0.10
2022-11-24T16:14:03.393Z,8.05
2022-11-24T16:19:06.144Z,2.47
2022-11-24T16:24:09.023Z,7.35
2022-11-24T16:29:16.796Z,7.93
2022-11-24T16:34:19.295Z,3.70
2022-11-24T16:39:21.790Z,6.40
2022-11-24T16:44:25.875Z,5.03
2022-11-24T16:49:28.555Z,4.15
2022-11-24T16:54:31.491Z,3.55
2022-11-24T16:59:35.587Z,7.13
2022-11-24T17:04:38.176Z,4.85
2022-11-24T17:09:41.012Z,6.97
2022-11-24T17:15:03.062Z,6.38
2022-11-24T17:20:08.521Z,7.80
2022-11-24T17:25:11.095Z,9.18
2022-11-24T17:30:16.966Z,4.03
2022-11-24T17:35:19.464Z,8.00
2022-11-24T17:40:30.699Z,2.22
2022-11-24T17:45:34.806Z,1.33
2022-11-24T17:50:37.608Z,2.53
2022-11-24T17:55:40.896Z,8.88
2022-11-24T18:00:45.374Z,7.90
2022-11-24T18:05:48.231Z,2.35
2022-11-24T18:10:51.099Z,9.55
2022-11-24T18:15:55.563Z,10.63
2022-11-24T18:20:59.620Z,9.40
2022-11-24T18:26:02.932Z,9.00
2022-11-24T18:31:08.726Z,6.72
2022-11-24T18:36:13.335Z,10.30
2022-11-24T18:41:16.179Z,14.95
2022-11-24T18:46:20.323Z,27.15
2022-11-24T18:56:26.496Z,6.88
2022-11-24T19:01:31.192Z,22.33
2022-11-24T19:06:35.193Z,9.57
2022-11-24T19:11:38.635Z,6.47
2022-11-24T19:16:42.646Z,13.23
2022-11-24T19:21:45.603Z,6.22
2022-11-24T19:26:48.107Z,12.48
2022-11-24T19:31:52.088Z,16.92
2022-11-24T19:36:54.658Z,24.13
2022-11-24T19:41:59.804Z,5.47
2022-11-24T19:47:03.682Z,26.15
2022-11-24T19:52:06.398Z,19.13
2022-11-24T19:57:08.990Z,24.80
2022-11-24T20:02:20.604Z,8.25
2022-11-24T20:07:23.307Z,10.68
2022-11-24T20:12:25.830Z,7.10
2022-11-24T20:17:32.559Z,6.07
2022-11-24T20:22:35.148Z,9.02
2022-11-24T20:27:37.666Z,4.78
2022-11-24T20:32:41.981Z,5.40
2022-11-24T20:37:47.664Z,5.82
2022-11-24T20:42:50.197Z,7.72
2022-11-24T20:47:54.111Z,23.80
2022-11-24T20:52:56.865Z,32.10
2022-11-24T20:57:59.351Z,16.35
2022-11-24T21:03:07.141Z,8.15
2022-11-24T21:08:10.615Z,2.85
2022-11-24T21:13:13.272Z,15.63
2022-11-24T21:18:19.867Z,37.80
2022-11-24T21:23:22.375Z,67.95
2022-11-24T21:28:28.915Z,24.67
2022-11-24T21:33:32.868Z,30.27
2022-11-24T21:38:35.561Z,17.65
2022-11-24T21:43:38.747Z,6.28
2022-11-24T21:48:43.140Z,8.43
2022-11-24T21:53:47.884Z,5.68
2022-11-24T21:58:51.562Z,1.88
2022-11-24T22:03:55.817Z,3.55
2022-11-24T22:14:00.589Z,8.30
2022-11-24T22:19:05.155Z,5.28
2022-11-24T22:24:08.099Z,4.05
2022-11-24T22:29:11.045Z,4.45
2022-11-24T22:34:15.005Z,8.77
2022-11-24T22:39:17.910Z,3.30
2022-11-24T22:44:20.515Z,4.93
2022-11-24T22:49:24.676Z,11.55
2022-11-24T22:54:27.854Z,3.00
2022-11-24T22:59:30.425Z,3.15
2022-11-24T23:04:34.507Z,3.57
2022-11-24T23:14:39.610Z,7.28
2022-11-24T23:19:43.453Z,4.23
2022-11-24T23:24:45.980Z,1.05
2022-11-24T23:29:48.527Z,2.33
2022-11-24T23:34:57.721Z,3.27
2022-11-24T23:40:00.491Z,2.42
2022-11-24T23:45:03.326Z,6.27
2022-11-24T23:50:09.087Z,4.00
2022-11-24T23:55:11.790Z,1.77
